sensor_id;sensor_type;location;lat;lon;timestamp;pressure;altitude;pressure_sealevel;temperature;humidity
75420;BME280;63998;52.488;13.428;2023-04-23T00:01:55;100206.16;;;16.92;41.17
75420;BME280;63998;52.488;13.428;2023-04-23T00:04:22;100208.56;;;16.98;41.41
75420;BME280;63998;52.488;13.428;2023-04-23T00:06:50;100205.84;;;17.01;41.59
75420;BME280;63998;52.488;13.428;2023-04-23T00:09:17;100206.88;;;16.95;41.03
75420;BME280;63998;52.488;13.428;2023-04-23T00:11:42;100202.50;;;16.96;40.92
75420;BME280;63998;52.488;13.428;2023-04-23T00:14:10;100207.75;;;16.96;40.98
75420;BME280;63998;52.488;13.428;2023-04-23T00:16:38;100203.63;;;16.88;41.29
75420;BME280;63998;52.488;13.428;2023-04-23T00:19:07;100186.41;;;16.80;41.01
75420;BME280;63998;52.488;13.428;2023-04-23T00:21:35;100196.16;;;16.76;41.00
75420;BME280;63998;52.488;13.428;2023-04-23T00:24:00;100191.84;;;16.74;41.51
75420;BME280;63998;52.488;13.428;2023-04-23T00:26:25;100192.72;;;16.74;41.88
75420;BME280;63998;52.488;13.428;2023-04-23T00:28:51;100198.03;;;16.71;41.61
75420;BME280;63998;52.488;13.428;2023-04-23T00:31:20;100193.28;;;16.56;41.13
75420;BME280;63998;52.488;13.428;2023-04-23T00:33:46;100191.34;;;16.61;41.93
75420;BME280;63998;52.488;13.428;2023-04-23T00:36:12;100185.16;;;16.65;42.20
75420;BME280;63998;52.488;13.428;2023-04-23T00:38:37;100191.41;;;16.60;41.69
75420;BME280;63998;52.488;13.428;2023-04-23T00:41:04;100184.13;;;16.69;43.38
75420;BME280;63998;52.488;13.428;2023-04-23T00:43:30;100185.78;;;16.72;41.76
75420;BME280;63998;52.488;13.428;2023-04-23T00:45:55;100182.59;;;16.62;41.76
75420;BME280;63998;52.488;13.428;2023-04-23T00:48:23;100183.66;;;16.57;41.93
75420;BME280;63998;52.488;13.428;2023-04-23T00:50:57;100170.59;;;16.55;42.51
75420;BME280;63998;52.488;13.428;2023-04-23T00:53:22;100182.63;;;16.61;42.32
75420;BME280;63998;52.488;13.428;2023-04-23T00:55:50;100176.28;;;16.40;42.20
75420;BME280;63998;52.488;13.428;2023-04-23T00:58:18;100180.28;;;16.24;42.45
75420;BME280;63998;52.488;13.428;2023-04-23T01:00:46;100176.38;;;16.07;43.00
75420;BME280;63998;52.488;13.428;2023-04-23T01:03:14;100171.88;;;16.12;43.47
75420;BME280;63998;52.488;13.428;2023-04-23T01:05:40;100177.94;;;16.14;43.35
75420;BME280;63998;52.488;13.428;2023-04-23T01:08:14;100166.84;;;16.06;43.16
75420;BME280;63998;52.488;13.428;2023-04-23T01:10:43;100170.22;;;16.10;43.77
75420;BME280;63998;52.488;13.428;2023-04-23T01:13:09;100175.69;;;16.02;43.45
75420;BME280;63998;52.488;13.428;2023-04-23T01:15:35;100168.19;;;15.90;43.69
75420;BME280;63998;52.488;13.428;2023-04-23T01:18:03;100177.84;;;15.88;44.18
75420;BME280;63998;52.488;13.428;2023-04-23T01:20:32;100174.06;;;15.98;44.81
75420;BME280;63998;52.488;13.428;2023-04-23T01:22:58;100170.72;;;15.93;43.91
75420;BME280;63998;52.488;13.428;2023-04-23T01:25:25;100167.00;;;16.00;44.65
75420;BME280;63998;52.488;13.428;2023-04-23T01:27:53;100171.25;;;16.04;44.37
75420;BME280;63998;52.488;13.428;2023-04-23T01:30:19;100166.84;;;16.06;44.77
75420;BME280;63998;52.488;13.428;2023-04-23T01:32:47;100173.88;;;16.04;44.30
75420;BME280;63998;52.488;13.428;2023-04-23T01:35:12;100170.16;;;16.11;44.75
75420;BME280;63998;52.488;13.428;2023-04-23T01:37:38;100168.44;;;16.10;44.09
75420;BME280;63998;52.488;13.428;2023-04-23T01:40:05;100176.94;;;15.89;44.31
75420;BME280;63998;52.488;13.428;2023-04-23T01:42:32;100174.25;;;15.92;44.73
75420;BME280;63998;52.488;13.428;2023-04-23T01:44:57;100168.81;;;15.98;44.95
75420;BME280;63998;52.488;13.428;2023-04-23T01:47:23;100164.34;;;16.02;45.03
75420;BME280;63998;52.488;13.428;2023-04-23T01:49:49;100166.56;;;16.15;45.05
75420;BME280;63998;52.488;13.428;2023-04-23T01:52:14;100164.88;;;16.13;44.48
75420;BME280;63998;52.488;13.428;2023-04-23T01:54:42;100158.06;;;16.07;44.88
75420;BME280;63998;52.488;13.428;2023-04-23T01:57:08;100169.34;;;16.09;45.69
75420;BME280;63998;52.488;13.428;2023-04-23T01:59:34;100160.59;;;16.10;45.79
75420;BME280;63998;52.488;13.428;2023-04-23T02:02:03;100163.41;;;16.04;46.50
75420;BME280;63998;52.488;13.428;2023-04-23T02:04:28;100160.13;;;15.96;46.50
75420;BME280;63998;52.488;13.428;2023-04-23T02:06:54;100156.81;;;15.91;47.45
75420;BME280;63998;52.488;13.428;2023-04-23T02:09:20;100163.66;;;15.95;48.17
75420;BME280;63998;52.488;13.428;2023-04-23T02:11:48;100149.94;;;15.87;48.91
75420;BME280;63998;52.488;13.428;2023-04-23T02:14:16;100155.22;;;15.86;50.01
75420;BME280;63998;52.488;13.428;2023-04-23T02:16:42;100157.31;;;15.73;50.25
75420;BME280;63998;52.488;13.428;2023-04-23T02:19:07;100153.06;;;15.36;52.84
75420;BME280;63998;52.488;13.428;2023-04-23T02:21:35;100160.44;;;15.22;54.55
75420;BME280;63998;52.488;13.428;2023-04-23T02:24:03;100158.78;;;15.20;55.72
75420;BME280;63998;52.488;13.428;2023-04-23T02:26:29;100146.56;;;15.20;57.01
75420;BME280;63998;52.488;13.428;2023-04-23T02:28:54;100158.88;;;15.15;57.88
75420;BME280;63998;52.488;13.428;2023-04-23T02:31:20;100161.84;;;15.01;58.12
75420;BME280;63998;52.488;13.428;2023-04-23T02:33:47;100159.28;;;15.00;58.05
75420;BME280;63998;52.488;13.428;2023-04-23T02:36:13;100171.72;;;14.90;60.26
75420;BME280;63998;52.488;13.428;2023-04-23T02:38:39;100167.00;;;14.70;60.96
75420;BME280;63998;52.488;13.428;2023-04-23T02:41:09;100165.13;;;14.76;60.37
75420;BME280;63998;52.488;13.428;2023-04-23T02:43:39;100160.84;;;14.71;60.92
75420;BME280;63998;52.488;13.428;2023-04-23T02:46:07;100163.41;;;14.74;60.69
75420;BME280;63998;52.488;13.428;2023-04-23T02:48:41;100153.41;;;14.56;61.18
75420;BME280;63998;52.488;13.428;2023-04-23T02:51:11;100146.72;;;14.45;60.87
75420;BME280;63998;52.488;13.428;2023-04-23T02:53:39;100150.13;;;14.08;62.27
75420;BME280;63998;52.488;13.428;2023-04-23T02:56:04;100144.41;;;13.89;63.79
75420;BME280;63998;52.488;13.428;2023-04-23T02:58:33;100149.63;;;13.89;64.15
75420;BME280;63998;52.488;13.428;2023-04-23T03:01:00;100144.41;;;13.89;65.16
75420;BME280;63998;52.488;13.428;2023-04-23T03:03:27;100146.94;;;13.94;65.96
75420;BME280;63998;52.488;13.428;2023-04-23T03:05:56;100144.47;;;13.86;66.95
75420;BME280;63998;52.488;13.428;2023-04-23T03:08:21;100143.69;;;13.84;66.81
75420;BME280;63998;52.488;13.428;2023-04-23T03:10:49;100142.84;;;13.82;67.93
75420;BME280;63998;52.488;13.428;2023-04-23T03:13:14;100151.81;;;13.69;67.60
75420;BME280;63998;52.488;13.428;2023-04-23T03:15:40;100146.59;;;13.69;68.18
75420;BME280;63998;52.488;13.428;2023-04-23T03:18:07;100152.44;;;13.82;67.94
75420;BME280;63998;52.488;13.428;2023-04-23T03:20:35;100152.25;;;13.89;67.91
75420;BME280;63998;52.488;13.428;2023-04-23T03:23:01;100147.81;;;13.94;68.33
75420;BME280;63998;52.488;13.428;2023-04-23T03:25:29;100155.47;;;14.02;68.15
75420;BME280;63998;52.488;13.428;2023-04-23T03:27:55;100144.91;;;14.08;68.88
75420;BME280;63998;52.488;13.428;2023-04-23T03:30:21;100153.38;;;14.18;68.91
75420;BME280;63998;52.488;13.428;2023-04-23T03:32:49;100143.41;;;14.35;67.94
75420;BME280;63998;52.488;13.428;2023-04-23T03:35:14;100147.31;;;14.56;66.69
75420;BME280;63998;52.488;13.428;2023-04-23T03:37:40;100146.84;;;14.74;66.29
75420;BME280;63998;52.488;13.428;2023-04-23T03:40:06;100143.22;;;14.81;66.82
75420;BME280;63998;52.488;13.428;2023-04-23T03:42:33;100139.41;;;14.93;66.13
75420;BME280;63998;52.488;13.428;2023-04-23T03:44:59;100143.59;;;15.00;65.69
75420;BME280;63998;52.488;13.428;2023-04-23T03:47:27;100141.03;;;14.97;66.43
75420;BME280;63998;52.488;13.428;2023-04-23T03:49:53;100136.56;;;15.02;65.80
75420;BME280;63998;52.488;13.428;2023-04-23T03:52:18;100143.59;;;15.00;65.88
75420;BME280;63998;52.488;13.428;2023-04-23T03:54:44;100134.91;;;14.98;66.98
75420;BME280;63998;52.488;13.428;2023-04-23T03:57:09;100133.13;;;15.00;66.33
75420;BME280;63998;52.488;13.428;2023-04-23T03:59:39;100130.16;;;14.80;66.77
75420;BME280;63998;52.488;13.428;2023-04-23T04:02:07;100121.63;;;14.71;67.50
75420;BME280;63998;52.488;13.428;2023-04-23T04:04:37;100128.81;;;14.63;67.91
75420;BME280;63998;52.488;13.428;2023-04-23T04:07:06;100124.38;;;14.67;67.67
75420;BME280;63998;52.488;13.428;2023-04-23T04:09:32;100120.00;;;14.67;67.34
75420;BME280;63998;52.488;13.428;2023-04-23T04:11:57;100123.47;;;14.69;67.20
75420;BME280;63998;52.488;13.428;2023-04-23T04:14:22;100122.94;;;14.55;67.57
75420;BME280;63998;52.488;13.428;2023-04-23T04:16:48;100116.13;;;14.48;68.22
75420;BME280;63998;52.488;13.428;2023-04-23T04:19:13;100122.09;;;14.53;68.34
75420;BME280;63998;52.488;13.428;2023-04-23T04:21:41;100121.34;;;14.48;68.64
75420;BME280;63998;52.488;13.428;2023-04-23T04:24:06;100117.38;;;14.32;68.86
75420;BME280;63998;52.488;13.428;2023-04-23T04:26:32;100127.81;;;14.32;68.68
75420;BME280;63998;52.488;13.428;2023-04-23T04:28:59;100130.50;;;14.29;68.81
75420;BME280;63998;52.488;13.428;2023-04-23T04:31:27;100129.81;;;14.21;69.81
75420;BME280;63998;52.488;13.428;2023-04-23T04:33:53;100124.66;;;14.18;69.61
75420;BME280;63998;52.488;13.428;2023-04-23T04:36:24;100140.19;;;14.22;69.78
75420;BME280;63998;52.488;13.428;2023-04-23T04:38:51;100143.50;;;14.32;69.49
75420;BME280;63998;52.488;13.428;2023-04-23T04:41:20;100144.97;;;14.45;69.34
75420;BME280;63998;52.488;13.428;2023-04-23T04:43:52;100140.50;;;14.49;69.68
75420;BME280;63998;52.488;13.428;2023-04-23T04:46:19;100144.66;;;14.57;69.69
75420;BME280;63998;52.488;13.428;2023-04-23T04:48:45;100144.56;;;14.60;69.58
75420;BME280;63998;52.488;13.428;2023-04-23T04:51:10;100141.50;;;14.43;69.98
75420;BME280;63998;52.488;13.428;2023-04-23T04:53:36;100139.88;;;14.36;70.10
75420;BME280;63998;52.488;13.428;2023-04-23T04:56:04;100141.81;;;14.28;70.20
75420;BME280;63998;52.488;13.428;2023-04-23T04:58:29;100138.31;;;14.29;70.83
75420;BME280;63998;52.488;13.428;2023-04-23T05:00:55;100145.28;;;14.30;71.43
75420;BME280;63998;52.488;13.428;2023-04-23T05:03:21;100150.50;;;14.30;71.76
75420;BME280;63998;52.488;13.428;2023-04-23T05:05:50;100149.66;;;14.28;72.39
75420;BME280;63998;52.488;13.428;2023-04-23T05:08:16;100159.28;;;14.26;72.56
75420;BME280;63998;52.488;13.428;2023-04-23T05:10:42;100157.56;;;14.25;72.22
75420;BME280;63998;52.488;13.428;2023-04-23T05:13:08;100163.56;;;14.30;72.33
75420;BME280;63998;52.488;13.428;2023-04-23T05:15:33;100150.22;;;14.44;71.52
75420;BME280;63998;52.488;13.428;2023-04-23T05:18:04;100153.53;;;14.50;71.53
75420;BME280;63998;52.488;13.428;2023-04-23T05:20:30;100151.69;;;14.55;71.35
75420;BME280;63998;52.488;13.428;2023-04-23T05:22:55;100159.31;;;14.63;71.57
75420;BME280;63998;52.488;13.428;2023-04-23T05:25:24;100154.63;;;14.77;71.51
75420;BME280;63998;52.488;13.428;2023-04-23T05:27:50;100165.13;;;14.76;71.76
75420;BME280;63998;52.488;13.428;2023-04-23T05:30:17;100159.97;;;14.72;71.29
75420;BME280;63998;52.488;13.428;2023-04-23T05:32:43;100152.25;;;14.68;72.11
75420;BME280;63998;52.488;13.428;2023-04-23T05:35:08;100153.00;;;14.71;71.51
75420;BME280;63998;52.488;13.428;2023-04-23T05:37:34;100152.63;;;14.87;71.11
75420;BME280;63998;52.488;13.428;2023-04-23T05:40:02;100165.06;;;14.79;71.33
75420;BME280;63998;52.488;13.428;2023-04-23T05:42:28;100166.53;;;14.89;70.88
75420;BME280;63998;52.488;13.428;2023-04-23T05:44:56;100173.47;;;14.90;71.37
75420;BME280;63998;52.488;13.428;2023-04-23T05:47:24;100169.09;;;14.92;71.08
75420;BME280;63998;52.488;13.428;2023-04-23T05:49:51;100163.94;;;14.87;71.09
75420;BME280;63998;52.488;13.428;2023-04-23T05:52:17;100171.00;;;14.84;71.62
75420;BME280;63998;52.488;13.428;2023-04-23T05:54:43;100168.78;;;14.68;71.77
75420;BME280;63998;52.488;13.428;2023-04-23T05:57:10;100168.91;;;14.62;71.96
75420;BME280;63998;52.488;13.428;2023-04-23T05:59:36;100161.31;;;14.53;72.51
75420;BME280;63998;52.488;13.428;2023-04-23T06:02:02;100165.56;;;14.57;72.49
75420;BME280;63998;52.488;13.428;2023-04-23T06:04:27;100169.09;;;14.56;72.66
75420;BME280;63998;52.488;13.428;2023-04-23T06:06:52;100174.44;;;14.50;72.84
75420;BME280;63998;52.488;13.428;2023-04-23T06:09:18;100174.34;;;14.55;73.01
75420;BME280;63998;52.488;13.428;2023-04-23T06:11:43;100164.75;;;14.55;73.01
75420;BME280;63998;52.488;13.428;2023-04-23T06:14:09;100176.09;;;14.54;73.18
75420;BME280;63998;52.488;13.428;2023-04-23T06:16:37;100170.00;;;14.54;72.95
75420;BME280;63998;52.488;13.428;2023-04-23T06:19:03;100173.28;;;14.62;73.01
75420;BME280;63998;52.488;13.428;2023-04-23T06:21:30;100176.88;;;14.58;73.15
75420;BME280;63998;52.488;13.428;2023-04-23T06:23:56;100176.22;;;14.48;73.37
75420;BME280;63998;52.488;13.428;2023-04-23T06:26:21;100169.22;;;14.50;73.72
75420;BME280;63998;52.488;13.428;2023-04-23T06:28:47;100169.97;;;14.55;73.79
75420;BME280;63998;52.488;13.428;2023-04-23T06:31:14;100175.00;;;14.63;73.70
75420;BME280;63998;52.488;13.428;2023-04-23T06:33:40;100172.28;;;14.67;73.63
75420;BME280;63998;52.488;13.428;2023-04-23T06:36:06;100164.97;;;14.82;73.09
75420;BME280;63998;52.488;13.428;2023-04-23T06:38:33;100163.94;;;14.87;72.86
75420;BME280;63998;52.488;13.428;2023-04-23T06:41:01;100180.56;;;14.85;72.96
75420;BME280;63998;52.488;13.428;2023-04-23T06:43:27;100182.47;;;14.80;73.33
75420;BME280;63998;52.488;13.428;2023-04-23T06:45:52;100175.34;;;14.85;73.04
75420;BME280;63998;52.488;13.428;2023-04-23T06:48:20;100175.44;;;14.82;73.21
75420;BME280;63998;52.488;13.428;2023-04-23T06:50:46;100184.09;;;14.84;73.29
75420;BME280;63998;52.488;13.428;2023-04-23T06:53:12;100177.97;;;14.85;73.07
75420;BME280;63998;52.488;13.428;2023-04-23T06:55:40;100181.59;;;14.79;73.83
75420;BME280;63998;52.488;13.428;2023-04-23T06:58:05;100177.53;;;14.67;74.22
75420;BME280;63998;52.488;13.428;2023-04-23T07:00:34;100184.66;;;14.59;74.82
75420;BME280;63998;52.488;13.428;2023-04-23T07:02:59;100186.63;;;14.51;74.93
75420;BME280;63998;52.488;13.428;2023-04-23T07:05:25;100186.63;;;14.51;75.53
75420;BME280;63998;52.488;13.428;2023-04-23T07:07:53;100185.28;;;14.32;75.79
75420;BME280;63998;52.488;13.428;2023-04-23T07:10:19;100191.47;;;14.28;76.18
75420;BME280;63998;52.488;13.428;2023-04-23T07:12:44;100196.81;;;14.22;76.79
75420;BME280;63998;52.488;13.428;2023-04-23T07:15:10;100194.41;;;14.13;77.40
75420;BME280;63998;52.488;13.428;2023-04-23T07:17:35;100193.41;;;14.20;77.39
75420;BME280;63998;52.488;13.428;2023-04-23T07:20:01;100196.31;;;14.05;78.27
75420;BME280;63998;52.488;13.428;2023-04-23T07:22:31;100206.97;;;13.95;78.59
75420;BME280;63998;52.488;13.428;2023-04-23T07:24:56;100197.53;;;13.88;79.71
75420;BME280;63998;52.488;13.428;2023-04-23T07:27:22;100201.84;;;13.89;80.12
75420;BME280;63998;52.488;13.428;2023-04-23T07:29:48;100212.25;;;13.92;80.53
75420;BME280;63998;52.488;13.428;2023-04-23T07:32:13;100210.47;;;13.94;80.73
75420;BME280;63998;52.488;13.428;2023-04-23T07:34:38;100207.22;;;13.83;81.68
75420;BME280;63998;52.488;13.428;2023-04-23T07:37:04;100209.94;;;13.77;81.97
75420;BME280;63998;52.488;13.428;2023-04-23T07:39:30;100209.97;;;13.74;82.19
75420;BME280;63998;52.488;13.428;2023-04-23T07:41:56;100213.53;;;13.72;82.21
75420;BME280;63998;52.488;13.428;2023-04-23T07:44:22;100218.75;;;13.72;82.70
75420;BME280;63998;52.488;13.428;2023-04-23T07:46:48;100217.09;;;13.68;82.22
75420;BME280;63998;52.488;13.428;2023-04-23T07:49:13;100213.38;;;13.79;82.98
75420;BME280;63998;52.488;13.428;2023-04-23T07:51:39;100218.41;;;13.88;82.62
75420;BME280;63998;52.488;13.428;2023-04-23T07:54:04;100213.00;;;13.97;82.66
75420;BME280;63998;52.488;13.428;2023-04-23T07:56:29;100212.09;;;13.98;82.54
75420;BME280;63998;52.488;13.428;2023-04-23T07:58:58;100215.75;;;13.91;82.68
75420;BME280;63998;52.488;13.428;2023-04-23T08:01:26;100216.72;;;13.86;82.86
75420;BME280;63998;52.488;13.428;2023-04-23T08:03:51;100223.56;;;13.91;83.03
75420;BME280;63998;52.488;13.428;2023-04-23T08:06:20;100222.75;;;13.89;82.76
75420;BME280;63998;52.488;13.428;2023-04-23T08:08:45;100220.19;;;13.86;82.89
75420;BME280;63998;52.488;13.428;2023-04-23T08:11:13;100228.16;;;13.80;82.75
75420;BME280;63998;52.488;13.428;2023-04-23T08:13:38;100224.66;;;13.81;83.04
75420;BME280;63998;52.488;13.428;2023-04-23T08:16:03;100218.63;;;13.78;83.54
75420;BME280;63998;52.488;13.428;2023-04-23T08:18:29;100221.31;;;13.73;83.25
75420;BME280;63998;52.488;13.428;2023-04-23T08:20:54;100215.78;;;13.88;83.60
75420;BME280;63998;52.488;13.428;2023-04-23T08:23:20;100212.09;;;13.98;83.22
75420;BME280;63998;52.488;13.428;2023-04-23T08:25:48;100208.69;;;13.96;83.05
75420;BME280;63998;52.488;13.428;2023-04-23T08:28:14;100213.72;;;14.06;83.31
75420;BME280;63998;52.488;13.428;2023-04-23T08:30:42;100217.03;;;14.14;82.59
75420;BME280;63998;52.488;13.428;2023-04-23T08:33:08;100215.03;;;14.25;82.65
75420;BME280;63998;52.488;13.428;2023-04-23T08:35:36;100216.81;;;14.23;82.27
75420;BME280;63998;52.488;13.428;2023-04-23T08:38:01;100217.53;;;14.31;82.02
75420;BME280;63998;52.488;13.428;2023-04-23T08:40:29;100213.78;;;14.44;81.37
75420;BME280;63998;52.488;13.428;2023-04-23T08:43:07;100212.69;;;14.54;81.35
75420;BME280;63998;52.488;13.428;2023-04-23T08:45:35;100206.31;;;14.66;81.21
75420;BME280;63998;52.488;13.428;2023-04-23T08:48:06;100218.56;;;14.64;80.56
75420;BME280;63998;52.488;13.428;2023-04-23T08:50:32;100222.03;;;14.64;80.50
75420;BME280;63998;52.488;13.428;2023-04-23T08:52:57;100215.00;;;14.66;80.27
75420;BME280;63998;52.488;13.428;2023-04-23T08:55:24;100208.72;;;14.73;80.16
75420;BME280;63998;52.488;13.428;2023-04-23T08:57:49;100220.22;;;14.68;79.92
75420;BME280;63998;52.488;13.428;2023-04-23T09:00:19;100219.34;;;14.67;79.40
75420;BME280;63998;52.488;13.428;2023-04-23T09:02:46;100223.13;;;14.54;79.69
75420;BME280;63998;52.488;13.428;2023-04-23T09:05:14;100218.88;;;14.50;80.20
75420;BME280;63998;52.488;13.428;2023-04-23T09:07:42;100226.75;;;14.47;80.13
75420;BME280;63998;52.488;13.428;2023-04-23T09:10:09;100221.88;;;14.32;80.50
75420;BME280;63998;52.488;13.428;2023-04-23T09:12:40;100232.50;;;14.23;80.87
75420;BME280;63998;52.488;13.428;2023-04-23T09:15:06;100221.88;;;14.32;80.73
75420;BME280;63998;52.488;13.428;2023-04-23T09:17:39;100221.88;;;14.32;80.04
75420;BME280;63998;52.488;13.428;2023-04-23T09:20:08;100235.94;;;14.25;80.39
75420;BME280;63998;52.488;13.428;2023-04-23T09:22:45;100222.84;;;14.26;81.00
75420;BME280;63998;52.488;13.428;2023-04-23T09:25:12;100227.34;;;14.20;81.43
75420;BME280;63998;52.488;13.428;2023-04-23T09:27:38;100229.00;;;14.24;81.61
75420;BME280;63998;52.488;13.428;2023-04-23T09:30:08;100236.13;;;14.16;81.26
75420;BME280;63998;52.488;13.428;2023-04-23T09:32:38;100243.13;;;14.14;81.59
75420;BME280;63998;52.488;13.428;2023-04-23T09:35:08;100250.22;;;14.09;81.47
75420;BME280;63998;52.488;13.428;2023-04-23T09:37:35;100242.41;;;14.07;81.51
75420;BME280;63998;52.488;13.428;2023-04-23T09:40:04;100256.47;;;14.00;81.24
75420;BME280;63998;52.488;13.428;2023-04-23T09:42:36;100252.25;;;13.94;80.57
75420;BME280;63998;52.488;13.428;2023-04-23T09:45:10;100248.00;;;13.87;80.69
75420;BME280;63998;52.488;13.428;2023-04-23T09:47:48;100262.75;;;13.91;80.36
75420;BME280;63998;52.488;13.428;2023-04-23T09:50:14;100253.88;;;13.98;79.94
75420;BME280;63998;52.488;13.428;2023-04-23T09:52:39;100259.91;;;14.02;79.77
75420;BME280;63998;52.488;13.428;2023-04-23T09:55:06;100253.03;;;13.98;78.94
75420;BME280;63998;52.488;13.428;2023-04-23T09:57:42;100260.78;;;14.02;78.85
75420;BME280;63998;52.488;13.428;2023-04-23T10:00:15;100265.31;;;13.93;78.59
75420;BME280;63998;52.488;13.428;2023-04-23T10:02:51;100265.41;;;13.88;77.80
75420;BME280;63998;52.488;13.428;2023-04-23T10:05:20;100264.50;;;13.89;77.29
75420;BME280;63998;52.488;13.428;2023-04-23T10:07:49;100269.91;;;13.80;76.81
75420;BME280;63998;52.488;13.428;2023-04-23T10:10:15;100277.63;;;13.86;76.88
75420;BME280;63998;52.488;13.428;2023-04-23T10:12:42;100272.38;;;13.88;76.48
75420;BME280;63998;52.488;13.428;2023-04-23T10:15:09;100281.97;;;13.87;76.67
75420;BME280;63998;52.488;13.428;2023-04-23T10:17:35;100281.97;;;13.87;76.69
75420;BME280;63998;52.488;13.428;2023-04-23T10:20:01;100291.53;;;13.87;77.33
75420;BME280;63998;52.488;13.428;2023-04-23T10:22:28;100287.41;;;13.75;78.17
75420;BME280;63998;52.488;13.428;2023-04-23T10:24:56;100292.47;;;13.84;79.03
75420;BME280;63998;52.488;13.428;2023-04-23T10:27:29;100290.56;;;13.92;78.08
75420;BME280;63998;52.488;13.428;2023-04-23T10:29:59;100309.38;;;13.62;77.14
75420;BME280;63998;52.488;13.428;2023-04-23T10:32:26;100303.66;;;13.42;77.29
75420;BME280;63998;52.488;13.428;2023-04-23T10:34:52;100302.63;;;13.50;77.29
75420;BME280;63998;52.488;13.428;2023-04-23T10:37:18;100286.75;;;13.64;77.64
75420;BME280;63998;52.488;13.428;2023-04-23T10:39:46;100288.25;;;13.76;77.83
75420;BME280;63998;52.488;13.428;2023-04-23T10:42:14;100283.91;;;13.76;77.75
75420;BME280;63998;52.488;13.428;2023-04-23T10:44:41;100271.22;;;14.02;76.53
75420;BME280;63998;52.488;13.428;2023-04-23T10:47:16;100284.13;;;14.10;76.30
75420;BME280;63998;52.488;13.428;2023-04-23T10:49:44;100283.56;;;13.94;74.78
75420;BME280;63998;52.488;13.428;2023-04-23T10:52:12;100274.47;;;14.14;75.21
75420;BME280;63998;52.488;13.428;2023-04-23T10:54:42;100266.94;;;14.43;74.06
75420;BME280;63998;52.488;13.428;2023-04-23T10:57:09;100268.13;;;14.68;73.18
75420;BME280;63998;52.488;13.428;2023-04-23T10:59:37;100280.69;;;14.90;72.00
75420;BME280;63998;52.488;13.428;2023-04-23T11:02:08;100279.81;;;14.91;70.68
75420;BME280;63998;52.488;13.428;2023-04-23T11:04:35;100280.31;;;15.06;70.38
75420;BME280;63998;52.488;13.428;2023-04-23T11:07:10;100281.69;;;14.84;69.64
75420;BME280;63998;52.488;13.428;2023-04-23T11:09:46;100286.03;;;14.85;70.70
75420;BME280;63998;52.488;13.428;2023-04-23T11:14:49;100283.94;;;14.62;68.82
75420;BME280;63998;52.488;13.428;2023-04-23T11:20:10;100287.31;;;14.67;68.74
75420;BME280;63998;52.488;13.428;2023-04-23T11:22:45;100284.25;;;14.47;67.53
75420;BME280;63998;52.488;13.428;2023-04-23T11:25:15;100293.03;;;14.46;67.81
75420;BME280;63998;52.488;13.428;2023-04-23T11:27:43;100281.81;;;14.38;68.51
75420;BME280;63998;52.488;13.428;2023-04-23T11:30:28;100280.06;;;14.40;68.85
75420;BME280;63998;52.488;13.428;2023-04-23T11:32:56;100287.00;;;14.43;68.20
75420;BME280;63998;52.488;13.428;2023-04-23T11:35:23;100282.41;;;14.52;68.37
75420;BME280;63998;52.488;13.428;2023-04-23T11:37:52;100282.34;;;14.55;68.48
75420;BME280;63998;52.488;13.428;2023-04-23T11:40:18;100281.56;;;14.52;68.12
75420;BME280;63998;52.488;13.428;2023-04-23T11:45:24;100287.03;;;14.40;68.86
75420;BME280;63998;52.488;13.428;2023-04-23T11:47:51;100291.72;;;14.65;68.04
75420;BME280;63998;52.488;13.428;2023-04-23T11:50:27;100286.31;;;15.10;67.58
75420;BME280;63998;52.488;13.428;2023-04-23T11:52:53;100281.47;;;15.66;64.80
75420;BME280;63998;52.488;13.428;2023-04-23T11:55:19;100281.78;;;16.19;62.45
75420;BME280;63998;52.488;13.428;2023-04-23T11:57:50;100282.94;;;16.38;61.53
75420;BME280;63998;52.488;13.428;2023-04-23T12:00:19;100278.78;;;16.60;61.85
75420;BME280;63998;52.488;13.428;2023-04-23T12:03:04;100282.06;;;16.96;60.89
75420;BME280;63998;52.488;13.428;2023-04-23T12:05:34;100270.19;;;17.39;59.71
75420;BME280;63998;52.488;13.428;2023-04-23T12:08:11;100272.88;;;17.62;58.09
75420;BME280;63998;52.488;13.428;2023-04-23T12:10:44;100266.06;;;17.83;56.57
75420;BME280;63998;52.488;13.428;2023-04-23T12:13:16;100282.44;;;17.91;56.15
75420;BME280;63998;52.488;13.428;2023-04-23T12:15:53;100282.56;;;17.35;56.46
75420;BME280;63998;52.488;13.428;2023-04-23T12:18:26;100279.31;;;17.01;56.89
75420;BME280;63998;52.488;13.428;2023-04-23T12:20:52;100280.72;;;17.11;57.14
75420;BME280;63998;52.488;13.428;2023-04-23T12:23:17;100304.34;;;16.53;57.47
75420;BME280;63998;52.488;13.428;2023-04-23T12:25:43;100291.72;;;16.37;58.51
75420;BME280;63998;52.488;13.428;2023-04-23T12:28:08;100304.28;;;16.26;58.14
75420;BME280;63998;52.488;13.428;2023-04-23T12:30:41;100298.75;;;16.35;57.69
75420;BME280;63998;52.488;13.428;2023-04-23T12:33:10;100299.19;;;16.50;56.79
75420;BME280;63998;52.488;13.428;2023-04-23T12:38:05;100285.38;;;16.75;55.22
75420;BME280;63998;52.488;13.428;2023-04-23T12:40:33;100288.31;;;17.46;54.78
75420;BME280;63998;52.488;13.428;2023-04-23T12:43:01;100289.13;;;17.75;52.27
75420;BME280;63998;52.488;13.428;2023-04-23T12:45:35;100278.47;;;18.27;51.81
75420;BME280;63998;52.488;13.428;2023-04-23T12:48:01;100296.66;;;18.09;49.69
75420;BME280;63998;52.488;13.428;2023-04-23T12:50:26;100277.59;;;18.04;50.01
75420;BME280;63998;52.488;13.428;2023-04-23T12:52:51;100276.63;;;18.29;49.49